createdAt,value
2019-04-13T00:00:11.220Z,29.40
2019-04-13T00:02:44.265Z,21.80
2019-04-13T00:05:16.327Z,16.53
2019-04-13T00:07:46.621Z,16.90
2019-04-13T00:10:16.921Z,13.67
2019-04-13T00:12:45.723Z,13.37
2019-04-13T00:15:16.317Z,13.27
2019-04-13T00:17:45.039Z,12.30
2019-04-13T00:20:13.861Z,13.80
2019-04-13T00:22:42.587Z,15.70
2019-04-13T00:25:11.304Z,14.73
2019-04-13T00:27:40.180Z,14.80
2019-04-13T00:30:08.910Z,14.30
2019-04-13T00:32:37.627Z,13.53
2019-04-13T00:35:07.643Z,12.63
2019-04-13T00:37:36.380Z,12.67
2019-04-13T00:40:06.012Z,14.80
2019-04-13T00:42:35.982Z,17.67
2019-04-13T00:45:06.828Z,13.57
2019-04-13T00:47:35.551Z,13.87
2019-04-13T00:50:06.918Z,16.13
2019-04-13T00:52:35.641Z,14.77
2019-04-13T00:55:05.069Z,14.60
2019-04-13T00:57:33.860Z,14.77
2019-04-13T01:00:02.586Z,13.50
2019-04-13T01:02:31.313Z,12.93
2019-04-13T01:05:00.951Z,13.83
2019-04-13T01:07:29.676Z,13.43
2019-04-13T01:09:58.399Z,13.47
2019-04-13T01:12:27.203Z,13.07
2019-04-13T01:14:55.940Z,13.77
2019-04-13T01:17:24.655Z,15.37
2019-04-13T01:19:53.511Z,14.80
2019-04-13T01:22:22.237Z,14.23
2019-04-13T01:24:50.971Z,15.00
2019-04-13T01:27:19.751Z,15.33
2019-04-13T01:29:48.475Z,16.13
2019-04-13T01:32:17.195Z,17.63
2019-04-13T01:34:46.763Z,19.63
2019-04-13T01:37:15.489Z,18.07
2019-04-13T01:39:44.224Z,18.57
2019-04-13T01:42:12.990Z,18.47
2019-04-13T01:44:41.731Z,15.13
2019-04-13T01:47:10.457Z,15.63
2019-04-13T01:49:39.340Z,15.37
2019-04-13T01:52:08.056Z,17.17
2019-04-13T01:54:36.783Z,18.57
2019-04-13T01:57:05.657Z,15.87
2019-04-13T01:59:34.388Z,14.47
2019-04-13T02:02:04.733Z,16.27
2019-04-13T02:04:38.181Z,16.33
2019-04-13T02:07:24.602Z,16.70
2019-04-13T02:10:13.086Z,16.47
2019-04-13T02:12:41.824Z,20.73
2019-04-13T02:15:11.647Z,22.47
2019-04-13T02:17:40.594Z,19.20
2019-04-13T02:20:09.613Z,14.90
2019-04-13T02:22:38.344Z,13.83
2019-04-13T02:25:07.305Z,13.30
2019-04-13T02:27:36.035Z,15.23
2019-04-13T02:30:07.270Z,17.03
2019-04-13T02:32:36.158Z,16.57
2019-04-13T02:35:05.475Z,16.53
2019-04-13T02:37:34.202Z,15.87
2019-04-13T02:40:04.208Z,16.13
2019-04-13T02:42:32.932Z,19.20
2019-04-13T02:45:01.714Z,21.37
2019-04-13T02:47:30.475Z,17.83
2019-04-13T02:49:59.238Z,17.57
2019-04-13T02:52:27.945Z,20.43
2019-04-13T02:54:56.720Z,21.20
2019-04-13T02:57:25.437Z,20.53
2019-04-13T02:59:54.169Z,19.47
2019-04-13T03:02:22.947Z,18.90
2019-04-13T03:04:51.678Z,15.90
2019-04-13T03:07:20.414Z,17.63
2019-04-13T03:09:50.090Z,15.40
2019-04-13T03:12:18.806Z,11.33
2019-04-13T03:14:47.546Z,10.00
2019-04-13T03:17:24.135Z,9.17
2019-04-13T03:19:57.579Z,9.73
2019-04-13T03:22:26.290Z,8.97
2019-04-13T03:24:55.091Z,9.67
2019-04-13T03:27:23.813Z,9.03
2019-04-13T03:29:52.641Z,12.23
2019-04-13T03:32:22.218Z,10.00
2019-04-13T03:34:51.029Z,10.50
2019-04-13T03:37:19.749Z,27.93
2019-04-13T03:39:48.553Z,45.57
2019-04-13T03:42:17.299Z,35.20
2019-04-13T03:44:46.023Z,19.97
2019-04-13T03:47:14.794Z,12.80
2019-04-13T03:49:43.517Z,13.50
2019-04-13T03:52:12.254Z,13.40
2019-04-13T03:54:41.046Z,12.17
2019-04-13T03:57:09.788Z,12.17
2019-04-13T03:59:38.498Z,14.47
2019-04-13T04:02:08.187Z,15.83
2019-04-13T04:04:36.909Z,16.07
2019-04-13T04:07:05.637Z,18.20
2019-04-13T04:09:34.416Z,16.20
2019-04-13T04:12:03.142Z,16.70
2019-04-13T04:14:31.875Z,17.80
2019-04-13T04:17:00.740Z,17.93
2019-04-13T04:19:29.474Z,15.50
2019-04-13T04:21:58.201Z,16.43
2019-04-13T04:24:27.062Z,15.57
2019-04-13T04:26:55.778Z,18.77
2019-04-13T04:29:24.519Z,19.57
2019-04-13T04:31:53.386Z,20.47
2019-04-13T04:34:22.112Z,19.80
2019-04-13T04:36:50.844Z,22.17
2019-04-13T04:39:19.659Z,23.47
2019-04-13T04:41:48.388Z,24.37
2019-04-13T04:44:17.113Z,24.27
2019-04-13T04:46:45.968Z,25.17
2019-04-13T04:49:14.743Z,23.17
2019-04-13T04:51:43.456Z,21.37
2019-04-13T04:54:12.259Z,21.30
2019-04-13T04:56:41.016Z,19.07
2019-04-13T04:59:09.739Z,18.53
2019-04-13T05:01:38.625Z,20.20
2019-04-13T05:04:07.375Z,20.07
2019-04-13T05:06:36.294Z,19.33
2019-04-13T05:09:07.458Z,21.00
2019-04-13T05:11:36.187Z,21.33
2019-04-13T05:14:04.916Z,22.30
2019-04-13T05:16:33.682Z,20.33
2019-04-13T05:19:02.414Z,19.17
2019-04-13T05:21:31.148Z,17.57
2019-04-13T05:24:00.704Z,17.63
2019-04-13T05:26:29.438Z,15.13
2019-04-13T05:28:58.166Z,15.83
2019-04-13T05:31:27.082Z,15.60
2019-04-13T05:33:55.819Z,15.70
2019-04-13T05:36:24.546Z,17.50
2019-04-13T05:38:53.357Z,17.57
2019-04-13T05:41:22.081Z,17.77
2019-04-13T05:43:50.809Z,18.47
2019-04-13T05:46:19.606Z,19.00
2019-04-13T05:48:48.335Z,17.90
2019-04-13T05:51:17.093Z,18.93
2019-04-13T05:53:45.903Z,25.83
2019-04-13T05:56:14.632Z,21.57
2019-04-13T05:58:43.358Z,20.73
2019-04-13T06:01:12.270Z,16.83
2019-04-13T06:03:40.994Z,20.50
2019-04-13T06:06:09.721Z,26.23
2019-04-13T06:08:40.554Z,29.70
2019-04-13T06:11:09.029Z,34.73
2019-04-13T06:13:37.804Z,29.73
2019-04-13T06:16:08.931Z,37.00
2019-04-13T06:18:37.071Z,28.03
2019-04-13T06:21:06.886Z,25.93
2019-04-13T06:23:35.862Z,23.53
2019-04-13T06:26:04.699Z,26.57
2019-04-13T06:28:33.427Z,29.67
2019-04-13T06:31:09.674Z,23.87
2019-04-13T06:33:39.971Z,24.13
2019-04-13T06:36:09.492Z,24.87
2019-04-13T06:38:38.480Z,24.83
2019-04-13T06:41:11.125Z,21.83
2019-04-13T06:43:37.655Z,21.93
2019-04-13T06:46:06.425Z,22.10
2019-04-13T06:48:36.905Z,20.60
2019-04-13T06:51:05.601Z,21.23
2019-04-13T06:53:38.328Z,20.43
2019-04-13T06:56:04.906Z,22.37
2019-04-13T06:58:33.586Z,20.10
2019-04-13T07:01:02.348Z,19.83
2019-04-13T07:03:31.074Z,17.83
2019-04-13T07:06:00.199Z,17.83
2019-04-13T07:08:38.093Z,16.67
2019-04-13T07:11:06.121Z,17.43
2019-04-13T07:13:36.467Z,16.77
2019-04-13T07:16:10.368Z,17.23
2019-04-13T07:18:37.214Z,18.13
2019-04-13T07:21:05.994Z,18.07
2019-04-13T07:23:34.723Z,16.33
2019-04-13T07:26:06.554Z,16.23
2019-04-13T07:28:34.048Z,16.37
2019-04-13T07:31:02.773Z,17.07
2019-04-13T07:33:31.507Z,17.80
2019-04-13T07:36:00.364Z,16.10
2019-04-13T07:38:29.101Z,16.20
2019-04-13T07:40:57.826Z,16.83
2019-04-13T07:43:26.611Z,17.00
2019-04-13T07:46:08.918Z,18.03
2019-04-13T07:48:56.853Z,17.60
2019-04-13T07:51:30.253Z,16.20
2019-04-13T07:53:58.977Z,16.93
2019-04-13T07:56:31.318Z,16.90
2019-04-13T07:58:58.217Z,16.83
2019-04-13T08:01:26.945Z,15.50
2019-04-13T08:03:55.797Z,15.47
2019-04-13T08:06:26.041Z,16.07
2019-04-13T08:08:54.931Z,14.20
2019-04-13T08:11:23.697Z,13.97
2019-04-13T08:13:57.076Z,13.13
2019-04-13T08:16:25.798Z,15.03
2019-04-13T08:19:04.969Z,13.60
2019-04-13T08:21:35.262Z,14.73
2019-04-13T08:24:04.087Z,14.80
2019-04-13T08:26:32.898Z,13.90
2019-04-13T08:29:01.622Z,14.23
2019-04-13T08:31:30.341Z,14.03
2019-04-13T08:33:59.237Z,14.00
2019-04-13T08:36:27.960Z,13.97
2019-04-13T08:38:58.960Z,14.67
2019-04-13T08:41:27.185Z,13.43
2019-04-13T08:43:55.912Z,12.07
2019-04-13T08:46:24.635Z,12.90
2019-04-13T08:48:54.167Z,12.20
2019-04-13T08:51:22.894Z,14.07
2019-04-13T08:53:51.628Z,13.50
2019-04-13T08:56:21.352Z,12.93
2019-04-13T08:58:50.953Z,13.60
2019-04-13T09:01:19.681Z,12.47
2019-04-13T09:03:48.584Z,11.87
2019-04-13T09:06:17.524Z,11.70
2019-04-13T09:08:46.214Z,12.90
2019-04-13T09:11:18.776Z,13.53
2019-04-13T09:13:45.437Z,13.10
2019-04-13T09:16:14.954Z,12.47
2019-04-13T09:18:49.063Z,11.63
2019-04-13T09:21:24.825Z,11.13
2019-04-13T09:23:52.390Z,10.67
2019-04-13T09:26:21.171Z,11.03
2019-04-13T09:28:49.890Z,9.93
2019-04-13T09:31:18.616Z,11.60
2019-04-13T09:33:47.468Z,9.80
2019-04-13T09:36:16.188Z,10.57
2019-04-13T09:38:46.704Z,10.80
2019-04-13T09:41:15.500Z,9.23
2019-04-13T09:43:45.801Z,10.07
2019-04-13T09:46:14.534Z,10.77
2019-04-13T09:48:44.119Z,12.03
2019-04-13T09:51:12.865Z,8.87
2019-04-13T09:53:41.589Z,8.20
2019-04-13T09:56:10.384Z,8.77
2019-04-13T09:58:39.104Z,7.20
2019-04-13T10:01:07.904Z,4.43
2019-04-13T10:03:39.246Z,4.10
2019-04-13T10:06:07.183Z,5.50
2019-04-13T10:08:35.906Z,5.70
2019-04-13T10:11:05.013Z,6.47
2019-04-13T10:13:50.594Z,6.80
2019-04-13T10:16:38.064Z,6.70
2019-04-13T10:19:07.485Z,5.50
2019-04-13T10:21:36.220Z,4.70
2019-04-13T10:24:05.108Z,4.43
2019-04-13T10:26:33.848Z,3.90
2019-04-13T10:29:02.569Z,3.93
2019-04-13T10:31:31.425Z,4.03
2019-04-13T10:34:00.148Z,4.80
2019-04-13T10:36:28.864Z,4.83
2019-04-13T10:39:07.994Z,4.70
2019-04-13T10:41:28.071Z,4.60
2019-04-13T10:43:59.570Z,5.10
2019-04-13T10:46:34.830Z,4.30
2019-04-13T10:49:05.127Z,4.50
2019-04-13T10:51:47.379Z,4.27
2019-04-13T10:54:16.123Z,4.37
2019-04-13T10:56:44.816Z,4.70
2019-04-13T10:59:13.674Z,3.40
2019-04-13T11:01:42.408Z,3.70
2019-04-13T11:04:11.132Z,2.67
2019-04-13T11:06:39.925Z,3.23
2019-04-13T11:09:21.384Z,3.20
2019-04-13T11:11:42.227Z,3.03
2019-04-13T11:14:11.800Z,3.07
2019-04-13T11:16:40.616Z,3.00
2019-04-13T11:19:09.415Z,2.37
2019-04-13T11:21:38.162Z,2.93
2019-04-13T11:24:06.986Z,2.37
2019-04-13T11:26:35.703Z,6.67
2019-04-13T11:29:04.771Z,3.47
2019-04-13T11:31:36.033Z,3.63
2019-04-13T11:34:04.045Z,3.47
2019-04-13T11:36:32.833Z,3.60
2019-04-13T11:39:02.490Z,3.10
2019-04-13T11:41:41.665Z,3.00
2019-04-13T11:44:24.217Z,3.10
2019-04-13T11:46:54.567Z,2.80
2019-04-13T11:49:24.859Z,3.70
2019-04-13T11:51:53.616Z,3.40
2019-04-13T11:54:26.999Z,2.83
2019-04-13T11:56:52.907Z,2.80
2019-04-13T11:59:21.634Z,3.30
2019-04-13T12:01:54.684Z,3.37
2019-04-13T12:04:37.089Z,2.90
2019-04-13T12:07:25.582Z,2.07
2019-04-13T12:10:03.523Z,2.43
2019-04-13T12:12:48.970Z,2.57
2019-04-13T12:15:38.397Z,2.80
2019-04-13T12:18:23.462Z,2.50
2019-04-13T12:21:09.938Z,1.83
2019-04-13T12:23:38.796Z,2.90
2019-04-13T12:26:07.501Z,3.03
2019-04-13T12:28:36.222Z,2.80
2019-04-13T12:31:05.080Z,2.50
2019-04-13T12:33:33.803Z,2.13
2019-04-13T12:36:02.590Z,3.37
2019-04-13T12:38:31.374Z,6.30
2019-04-13T12:41:04.192Z,2.90
2019-04-13T12:43:32.903Z,3.30
2019-04-13T12:46:02.663Z,2.90
2019-04-13T12:48:31.377Z,3.20
2019-04-13T12:51:00.093Z,3.13
2019-04-13T12:53:28.892Z,2.63
2019-04-13T12:55:57.612Z,2.77
2019-04-13T12:58:26.377Z,2.90
2019-04-13T13:00:59.105Z,1.50
2019-04-13T13:03:27.340Z,1.50
2019-04-13T13:05:57.189Z,1.73
2019-04-13T13:08:26.024Z,1.67
2019-04-13T13:10:54.742Z,1.90
2019-04-13T13:13:23.456Z,1.63
2019-04-13T13:15:53.135Z,1.73
2019-04-13T13:18:26.151Z,1.60
2019-04-13T13:20:52.407Z,1.20
2019-04-13T13:23:21.158Z,7.13
2019-04-13T13:25:51.121Z,9.33
2019-04-13T13:28:20.384Z,4.00
2019-04-13T13:30:51.089Z,2.50
2019-04-13T13:33:19.740Z,3.07
2019-04-13T13:35:48.464Z,3.70
2019-04-13T13:38:17.220Z,2.13
2019-04-13T13:40:45.932Z,2.43
2019-04-13T13:43:17.683Z,2.70
2019-04-13T13:45:46.561Z,2.97
2019-04-13T13:48:15.299Z,1.90
2019-04-13T13:50:44.025Z,1.90
2019-04-13T13:53:12.903Z,1.77
2019-04-13T13:55:41.627Z,2.07
2019-04-13T13:58:17.815Z,2.20
2019-04-13T14:00:48.156Z,1.87
2019-04-13T14:03:16.834Z,1.40
2019-04-13T14:05:45.587Z,1.70
2019-04-13T14:08:14.326Z,1.77
2019-04-13T14:10:43.457Z,2.17
2019-04-13T14:13:16.582Z,1.90
2019-04-13T14:15:44.671Z,2.97
2019-04-13T14:18:13.387Z,2.50
2019-04-13T14:20:42.900Z,2.70
2019-04-13T14:23:11.624Z,5.00
2019-04-13T14:25:40.352Z,3.33
2019-04-13T14:28:09.112Z,3.20
2019-04-13T14:30:37.832Z,3.13
2019-04-13T14:33:06.553Z,3.20
2019-04-13T14:35:35.514Z,2.57
2019-04-13T14:38:04.238Z,3.50
2019-04-13T14:40:32.958Z,3.00
2019-04-13T14:43:01.723Z,3.43
2019-04-13T14:45:30.438Z,3.30
2019-04-13T14:47:59.157Z,3.70
2019-04-13T14:50:28.060Z,4.13
2019-04-13T14:52:56.781Z,3.97
2019-04-13T14:55:29.340Z,3.97
2019-04-13T14:57:56.016Z,4.10
2019-04-13T15:00:24.844Z,3.90
2019-04-13T15:02:53.595Z,5.30
2019-04-13T15:05:22.382Z,4.90
2019-04-13T15:07:51.150Z,4.47
2019-04-13T15:10:19.902Z,4.57
2019-04-13T15:12:48.738Z,4.23
2019-04-13T15:15:18.071Z,4.43
2019-04-13T15:17:54.399Z,3.97
2019-04-13T15:20:26.676Z,3.87
2019-04-13T15:22:56.956Z,3.03
2019-04-13T15:25:24.713Z,2.60
2019-04-13T15:27:56.880Z,2.20
2019-04-13T15:30:24.802Z,2.00
2019-04-13T15:32:54.506Z,1.90
2019-04-13T15:35:23.700Z,2.30
2019-04-13T15:37:52.981Z,2.30
2019-04-13T15:40:24.089Z,1.80
2019-04-13T15:42:59.477Z,1.73
2019-04-13T15:45:24.557Z,2.60
2019-04-13T15:47:55.252Z,2.70
2019-04-13T15:50:24.075Z,2.23
2019-04-13T15:52:53.240Z,2.10
2019-04-13T15:55:23.005Z,2.20
2019-04-13T15:57:51.814Z,2.23
2019-04-13T16:00:21.004Z,2.80
2019-04-13T16:02:50.151Z,2.90
2019-04-13T16:05:19.876Z,2.70
2019-04-13T16:07:48.767Z,2.70
2019-04-13T16:10:19.107Z,3.37
2019-04-13T16:13:04.928Z,3.67
2019-04-13T16:15:36.045Z,3.27
2019-04-13T16:18:04.889Z,5.20
2019-04-13T16:20:33.751Z,4.70
2019-04-13T16:23:02.650Z,4.67
2019-04-13T16:25:32.267Z,4.73
2019-04-13T16:28:04.055Z,4.30
2019-04-13T16:30:49.945Z,4.17
2019-04-13T16:33:28.176Z,4.30
2019-04-13T16:35:59.564Z,6.40
2019-04-13T16:38:28.594Z,9.00
2019-04-13T16:40:58.707Z,13.90
2019-04-13T16:43:29.237Z,13.20
2019-04-13T16:46:15.673Z,10.23
2019-04-13T16:49:11.276Z,11.03
2019-04-13T16:51:35.059Z,11.27
2019-04-13T16:54:14.831Z,12.00
2019-04-13T16:56:54.464Z,11.83
2019-04-13T16:59:40.948Z,10.87
2019-04-13T17:02:31.553Z,22.43
2019-04-13T17:05:03.247Z,35.93
2019-04-13T17:07:32.122Z,19.90
2019-04-13T17:10:02.420Z,17.43
2019-04-13T17:12:38.435Z,11.70
2019-04-13T17:15:04.292Z,9.93
2019-04-13T17:17:34.242Z,13.47
2019-04-13T17:20:05.698Z,11.23
2019-04-13T17:22:37.116Z,30.30
2019-04-13T17:25:13.329Z,22.13
2019-04-13T17:28:00.978Z,11.93
2019-04-13T17:30:28.813Z,9.80
2019-04-13T17:33:02.308Z,9.37
2019-04-13T17:35:32.248Z,10.40
2019-04-13T17:38:01.175Z,9.90
2019-04-13T17:40:31.468Z,8.00
2019-04-13T17:43:18.324Z,9.20
2019-04-13T17:46:00.975Z,9.23
2019-04-13T17:48:48.368Z,8.53
2019-04-13T17:51:35.223Z,7.50
2019-04-13T17:54:24.657Z,4.20
2019-04-13T17:56:54.939Z,4.67
2019-04-13T17:59:34.290Z,6.30
2019-04-13T18:02:19.809Z,4.90
2019-04-13T18:04:53.749Z,4.67
2019-04-13T18:07:27.893Z,5.10
2019-04-13T18:10:02.215Z,4.97
2019-04-13T18:12:47.706Z,4.53
2019-04-13T18:15:30.486Z,4.23
2019-04-13T18:18:01.893Z,4.57
2019-04-13T18:20:32.105Z,4.07
2019-04-13T18:23:02.508Z,4.57
2019-04-13T18:25:38.716Z,4.70
2019-04-13T18:28:02.158Z,5.00
2019-04-13T18:30:34.730Z,6.20
2019-04-13T18:33:01.458Z,33.63
2019-04-13T18:35:31.136Z,13.10
2019-04-13T18:37:59.920Z,51.87
2019-04-13T18:40:28.785Z,36.57
2019-04-13T18:43:09.226Z,38.20
2019-04-13T18:45:31.105Z,11.93
2019-04-13T18:47:59.996Z,16.40
2019-04-13T18:50:28.918Z,30.17
2019-04-13T18:53:00.339Z,41.93
2019-04-13T18:55:28.864Z,38.73
2019-04-13T18:57:57.595Z,11.30
2019-04-13T19:00:26.483Z,8.03
2019-04-13T19:02:56.239Z,5.23
2019-04-13T19:05:25.089Z,4.50
2019-04-13T19:07:54.710Z,3.40
2019-04-13T19:10:23.957Z,2.90
2019-04-13T19:13:03.202Z,2.40
2019-04-13T19:15:25.179Z,4.00
2019-04-13T19:17:53.906Z,3.30
2019-04-13T19:20:22.656Z,3.57
2019-04-13T19:22:51.551Z,69.50
2019-04-13T19:25:20.281Z,42.57
2019-04-13T19:27:48.999Z,22.70
2019-04-13T19:30:17.878Z,4.67
2019-04-13T19:32:46.606Z,12.27
2019-04-13T19:35:15.326Z,3.83
2019-04-13T19:37:44.116Z,4.13
2019-04-13T19:40:12.834Z,4.30
2019-04-13T19:42:41.561Z,4.07
2019-04-13T19:45:10.537Z,4.10
2019-04-13T19:47:39.256Z,3.73
2019-04-13T19:50:11.029Z,3.90
2019-04-13T19:52:49.218Z,4.00
2019-04-13T19:55:17.963Z,4.17
2019-04-13T19:57:46.690Z,4.17
2019-04-13T20:00:17.962Z,12.07
2019-04-13T20:02:46.720Z,3.67
2019-04-13T20:05:15.412Z,3.60
2019-04-13T20:07:45.934Z,3.47
2019-04-13T20:10:14.755Z,3.23
2019-04-13T20:12:44.616Z,3.70
2019-04-13T20:15:16.334Z,4.30
2019-04-13T20:17:45.045Z,4.70
2019-04-13T20:20:13.995Z,33.90
2019-04-13T20:22:43.947Z,9.23
2019-04-13T20:25:18.565Z,8.53
2019-04-13T20:27:47.741Z,6.70
2019-04-13T20:30:17.277Z,6.87
2019-04-13T20:33:08.837Z,6.63
2019-04-13T20:35:56.920Z,6.07
2019-04-13T20:38:19.690Z,5.90
2019-04-13T20:40:53.246Z,7.33
2019-04-13T20:43:20.805Z,9.10
2019-04-13T20:46:23.516Z,7.37
2019-04-13T20:48:49.378Z,8.07
2019-04-13T20:51:21.459Z,7.37
2019-04-13T20:53:50.293Z,7.70
2019-04-13T20:56:19.018Z,8.60
2019-04-13T20:58:48.866Z,8.37
2019-04-13T21:01:23.496Z,9.20
2019-04-13T21:03:53.421Z,8.00
2019-04-13T21:06:22.361Z,12.90
2019-04-13T21:08:54.203Z,44.20
2019-04-13T21:11:21.685Z,43.43
2019-04-13T21:14:01.092Z,17.70
2019-04-13T21:16:21.412Z,11.77
2019-04-13T21:18:51.407Z,11.50
2019-04-13T21:21:21.509Z,10.00
2019-04-13T21:23:52.101Z,11.13
2019-04-13T21:26:23.540Z,10.20
2019-04-13T21:28:51.587Z,10.57
2019-04-13T21:31:21.746Z,10.67
2019-04-13T21:33:51.819Z,11.30
2019-04-13T21:36:21.726Z,14.53
2019-04-13T21:38:51.699Z,21.40
2019-04-13T21:41:21.651Z,16.67
2019-04-13T21:43:51.876Z,15.90
2019-04-13T21:46:21.951Z,12.67
2019-04-13T21:48:50.859Z,18.77
2019-04-13T21:51:23.187Z,20.27
2019-04-13T21:53:53.644Z,18.83
2019-04-13T21:56:23.314Z,16.73
2019-04-13T21:58:53.265Z,14.13
2019-04-13T22:01:36.685Z,9.17
2019-04-13T22:04:06.656Z,6.93
2019-04-13T22:06:35.505Z,5.63
2019-04-13T22:09:07.038Z,5.33
2019-04-13T22:11:36.558Z,6.23
2019-04-13T22:14:07.997Z,7.80
2019-04-13T22:16:37.653Z,7.70
2019-04-13T22:19:07.190Z,6.73
2019-04-13T22:21:37.100Z,10.07
2019-04-13T22:24:07.116Z,7.40
2019-04-13T22:26:36.907Z,7.23
2019-04-13T22:29:13.693Z,7.37
2019-04-13T22:31:48.004Z,7.20
2019-04-13T22:34:35.797Z,7.10
2019-04-13T22:37:06.063Z,6.70
2019-04-13T22:39:35.666Z,5.23
2019-04-13T22:42:06.061Z,5.97
2019-04-13T22:44:52.944Z,5.87
2019-04-13T22:47:16.780Z,6.50
2019-04-13T22:50:00.262Z,5.87
2019-04-13T22:52:38.876Z,7.20
2019-04-13T22:55:16.477Z,6.93
2019-04-13T22:57:47.704Z,5.90
2019-04-13T23:00:25.767Z,5.63
2019-04-13T23:02:54.678Z,5.80
2019-04-13T23:05:24.403Z,6.37
2019-04-13T23:07:54.504Z,5.80
2019-04-13T23:10:24.773Z,6.97
2019-04-13T23:12:54.991Z,7.20
2019-04-13T23:15:30.481Z,7.90
2019-04-13T23:17:55.254Z,7.40
2019-04-13T23:20:24.161Z,8.50
2019-04-13T23:22:54.097Z,8.63
2019-04-13T23:25:24.376Z,6.37
2019-04-13T23:27:54.843Z,4.20
2019-04-13T23:30:24.909Z,4.90
2019-04-13T23:32:53.917Z,6.13
2019-04-13T23:35:23.584Z,6.40
2019-04-13T23:37:52.355Z,5.10
2019-04-13T23:40:22.423Z,5.00
2019-04-13T23:42:51.237Z,5.00
2019-04-13T23:45:26.978Z,5.30
2019-04-13T23:47:52.126Z,6.03
2019-04-13T23:50:21.941Z,5.13
2019-04-13T23:52:52.163Z,5.23
2019-04-13T23:55:22.766Z,5.60
2019-04-13T23:57:53.282Z,5.10
